createdAt,value
2018-11-11T00:00:43.867Z,987.36
2018-11-11T00:01:44.205Z,987.35
2018-11-11T00:02:43.791Z,987.32
2018-11-11T00:03:43.875Z,987.32
2018-11-11T00:04:43.709Z,987.36
2018-11-11T00:05:43.307Z,987.35
2018-11-11T00:06:43.638Z,987.34
2018-11-11T00:07:43.892Z,987.32
2018-11-11T00:08:43.285Z,987.38
2018-11-11T00:09:43.202Z,987.38
2018-11-11T00:10:43.188Z,987.42
2018-11-11T00:11:43.160Z,987.42
2018-11-11T00:12:43.134Z,987.39
2018-11-11T00:13:43.176Z,987.44
2018-11-11T00:14:43.098Z,987.43
2018-11-11T00:15:43.073Z,987.46
2018-11-11T00:16:43.038Z,987.44
2018-11-11T00:17:43.021Z,987.48
2018-11-11T00:18:43.159Z,987.52
2018-11-11T00:19:43.297Z,987.51
2018-11-11T00:20:42.946Z,987.52
2018-11-11T00:21:42.949Z,987.56
2018-11-11T00:22:42.893Z,987.61
2018-11-11T00:23:42.950Z,987.60
2018-11-11T00:24:42.793Z,987.56
2018-11-11T00:25:42.800Z,987.58
2018-11-11T00:26:42.782Z,987.62
2018-11-11T00:27:42.741Z,987.60
2018-11-11T00:28:42.810Z,987.59
2018-11-11T00:29:42.815Z,987.66
2018-11-11T00:30:42.703Z,987.66
2018-11-11T00:31:42.644Z,987.71
2018-11-11T00:32:42.843Z,987.73
2018-11-11T00:33:42.583Z,987.75
2018-11-11T00:34:42.673Z,987.73
2018-11-11T00:35:42.650Z,987.77
2018-11-11T00:36:42.534Z,987.73
2018-11-11T00:37:42.498Z,987.74
2018-11-11T00:38:42.473Z,987.74
2018-11-11T00:39:42.556Z,987.78
2018-11-11T00:40:42.413Z,987.78
2018-11-11T00:41:42.385Z,987.83
2018-11-11T00:42:42.359Z,987.82
2018-11-11T00:43:42.341Z,987.83
2018-11-11T00:44:42.344Z,987.86
2018-11-11T00:45:42.612Z,987.86
2018-11-11T00:46:42.276Z,987.84
2018-11-11T00:47:42.261Z,987.90
2018-11-11T00:48:42.188Z,987.94
2018-11-11T00:49:42.471Z,987.98
2018-11-11T00:50:42.218Z,988.02
2018-11-11T00:51:42.116Z,988.04
2018-11-11T00:52:42.107Z,988.05
2018-11-11T00:53:42.058Z,988.08
2018-11-11T00:54:42.045Z,988.06
2018-11-11T00:55:42.328Z,988.11
2018-11-11T00:56:41.998Z,988.17
2018-11-11T00:57:41.989Z,988.18
2018-11-11T00:58:42.016Z,988.21
2018-11-11T00:59:42.050Z,988.20
2018-11-11T01:00:41.933Z,988.24
2018-11-11T01:01:41.943Z,988.26
2018-11-11T01:02:42.771Z,988.29
2018-11-11T01:03:42.059Z,988.28
2018-11-11T01:04:42.384Z,988.30
2018-11-11T01:05:42.008Z,988.28
2018-11-11T01:06:42.491Z,988.27
2018-11-11T01:07:42.761Z,988.27
2018-11-11T01:08:41.888Z,988.25
2018-11-11T01:09:42.640Z,988.30
2018-11-11T01:10:41.908Z,988.27
2018-11-11T01:11:41.586Z,988.29
2018-11-11T01:12:41.764Z,988.29
2018-11-11T01:13:41.636Z,988.29
2018-11-11T01:14:41.697Z,988.33
2018-11-11T01:15:41.477Z,988.32
2018-11-11T01:16:41.870Z,988.28
2018-11-11T01:17:41.429Z,988.26
2018-11-11T01:18:42.068Z,988.25
2018-11-11T01:19:41.396Z,988.25
2018-11-11T01:20:41.443Z,988.23
2018-11-11T01:21:41.324Z,988.25
2018-11-11T01:22:41.475Z,988.28
2018-11-11T01:23:41.265Z,988.29
2018-11-11T01:24:41.376Z,988.34
2018-11-11T01:25:41.217Z,988.32
2018-11-11T01:26:41.241Z,988.29
2018-11-11T01:27:41.323Z,988.30
2018-11-11T01:28:41.117Z,988.29
2018-11-11T01:29:41.398Z,988.29
2018-11-11T01:30:41.130Z,988.29
2018-11-11T01:31:41.052Z,988.29
2018-11-11T01:32:41.070Z,988.31
2018-11-11T01:33:41.067Z,988.30
2018-11-11T01:34:41.035Z,988.29
2018-11-11T01:35:41.102Z,988.30
2018-11-11T01:36:40.930Z,988.26
2018-11-11T01:37:40.909Z,988.29
2018-11-11T01:38:41.030Z,988.27
2018-11-11T01:39:41.236Z,988.25
2018-11-11T01:40:42.418Z,988.22
2018-11-11T01:41:41.798Z,988.24
2018-11-11T01:42:40.792Z,988.27
2018-11-11T01:43:41.004Z,988.28
2018-11-11T01:44:41.296Z,988.29
2018-11-11T01:45:40.795Z,988.27
2018-11-11T01:46:40.852Z,988.28
2018-11-11T01:47:41.660Z,988.31
2018-11-11T01:48:41.164Z,988.32
2018-11-11T01:49:40.575Z,988.32
2018-11-11T01:50:40.583Z,988.29
2018-11-11T01:51:41.118Z,988.32
2018-11-11T01:52:40.878Z,988.30
2018-11-11T01:53:42.441Z,988.28
2018-11-11T01:54:41.077Z,988.30
2018-11-11T01:55:40.918Z,988.34
2018-11-11T01:56:40.878Z,988.33
2018-11-11T01:57:40.458Z,988.32
2018-11-11T01:58:40.594Z,988.33
2018-11-11T01:59:40.844Z,988.34
2018-11-11T02:00:40.704Z,988.34
2018-11-11T02:01:40.865Z,988.34
2018-11-11T02:02:40.465Z,988.37
2018-11-11T02:03:40.284Z,988.34
2018-11-11T02:04:40.585Z,988.35
2018-11-11T02:05:40.805Z,988.34
2018-11-11T02:06:40.267Z,988.37
2018-11-11T02:07:40.175Z,988.37
2018-11-11T02:08:40.110Z,988.40
2018-11-11T02:09:40.382Z,988.43
2018-11-11T02:10:40.460Z,988.41
2018-11-11T02:11:40.342Z,988.45
2018-11-11T02:12:40.145Z,988.48
2018-11-11T02:13:39.982Z,988.48
2018-11-11T02:14:39.915Z,988.50
2018-11-11T02:15:39.992Z,988.49
2018-11-11T02:16:39.883Z,988.52
2018-11-11T02:17:40.070Z,988.53
2018-11-11T02:18:40.069Z,988.56
2018-11-11T02:19:40.045Z,988.56
2018-11-11T02:20:40.000Z,988.58
2018-11-11T02:21:39.725Z,988.61
2018-11-11T02:22:39.685Z,988.62
2018-11-11T02:23:39.665Z,988.62
2018-11-11T02:24:40.205Z,988.62
2018-11-11T02:25:39.620Z,988.64
2018-11-11T02:26:39.712Z,988.64
2018-11-11T02:27:39.586Z,988.63
2018-11-11T02:28:39.632Z,988.62
2018-11-11T02:29:39.526Z,988.63
2018-11-11T02:30:39.532Z,988.64
2018-11-11T02:31:39.982Z,988.68
2018-11-11T02:32:39.576Z,988.65
2018-11-11T02:33:39.417Z,988.65
2018-11-11T02:34:39.367Z,988.62
2018-11-11T02:35:39.351Z,988.61
2018-11-11T02:36:39.425Z,988.61
2018-11-11T02:37:39.735Z,988.59
2018-11-11T02:38:39.311Z,988.63
2018-11-11T02:39:39.228Z,988.65
2018-11-11T02:40:39.195Z,988.63
2018-11-11T02:41:39.417Z,988.63
2018-11-11T02:42:39.196Z,988.60
2018-11-11T02:43:39.230Z,988.59
2018-11-11T02:44:39.094Z,988.64
2018-11-11T02:45:39.072Z,988.65
2018-11-11T02:46:39.063Z,988.62
2018-11-11T02:47:39.101Z,988.60
2018-11-11T02:48:39.017Z,988.62
2018-11-11T02:49:39.132Z,988.61
2018-11-11T02:50:38.978Z,988.59
2018-11-11T02:51:38.891Z,988.56
2018-11-11T02:52:39.292Z,988.57
2018-11-11T02:53:38.849Z,988.58
2018-11-11T02:54:38.939Z,988.57
2018-11-11T02:55:38.848Z,988.60
2018-11-11T02:56:38.823Z,988.57
2018-11-11T02:57:38.759Z,988.60
2018-11-11T02:58:38.883Z,988.59
2018-11-11T02:59:38.838Z,988.61
2018-11-11T03:00:38.651Z,988.61
2018-11-11T03:01:38.773Z,988.57
2018-11-11T03:02:39.221Z,988.57
2018-11-11T03:03:38.560Z,988.57
2018-11-11T03:04:38.848Z,988.56
2018-11-11T03:05:38.661Z,988.57
2018-11-11T03:06:38.741Z,988.59
2018-11-11T03:07:38.541Z,988.61
2018-11-11T03:08:38.430Z,988.57
2018-11-11T03:09:38.538Z,988.60
2018-11-11T03:10:38.426Z,988.62
2018-11-11T03:11:38.413Z,988.61
2018-11-11T03:12:38.364Z,988.61
2018-11-11T03:13:38.318Z,988.58
2018-11-11T03:14:38.265Z,988.57
2018-11-11T03:15:38.267Z,988.57
2018-11-11T03:16:38.283Z,988.59
2018-11-11T03:17:38.293Z,988.58
2018-11-11T03:18:38.176Z,988.59
2018-11-11T03:19:38.123Z,988.55
2018-11-11T03:20:38.125Z,988.58
2018-11-11T03:21:38.075Z,988.59
2018-11-11T03:22:38.139Z,988.59
2018-11-11T03:23:38.226Z,988.62
2018-11-11T03:24:38.024Z,988.60
2018-11-11T03:25:37.990Z,988.60
2018-11-11T03:26:38.419Z,988.59
2018-11-11T03:27:37.953Z,988.62
2018-11-11T03:28:38.185Z,988.63
2018-11-11T03:29:37.888Z,988.61
2018-11-11T03:30:37.848Z,988.65
2018-11-11T03:31:37.848Z,988.66
2018-11-11T03:32:37.804Z,988.64
2018-11-11T03:33:37.881Z,988.59
2018-11-11T03:34:37.738Z,988.63
2018-11-11T03:35:37.861Z,988.62
2018-11-11T03:36:37.730Z,988.61
2018-11-11T03:37:37.664Z,988.61
2018-11-11T03:38:37.719Z,988.63
2018-11-11T03:39:37.635Z,988.61
2018-11-11T03:40:37.567Z,988.59
2018-11-11T03:41:37.548Z,988.62
2018-11-11T03:42:37.522Z,988.60
2018-11-11T03:43:37.488Z,988.60
2018-11-11T03:44:37.510Z,988.59
2018-11-11T03:45:37.443Z,988.57
2018-11-11T03:46:37.426Z,988.54
2018-11-11T03:47:37.397Z,988.52
2018-11-11T03:48:37.369Z,988.47
2018-11-11T03:49:37.348Z,988.45
2018-11-11T03:50:37.423Z,988.45
2018-11-11T03:51:37.301Z,988.42
2018-11-11T03:52:37.761Z,988.40
2018-11-11T03:53:37.218Z,988.36
2018-11-11T03:54:37.182Z,988.34
2018-11-11T03:55:37.221Z,988.31
2018-11-11T03:56:37.173Z,988.31
2018-11-11T03:57:37.133Z,988.32
2018-11-11T03:58:37.149Z,988.31
2018-11-11T03:59:37.063Z,988.27
2018-11-11T04:00:37.052Z,988.22
2018-11-11T04:01:37.103Z,988.21
2018-11-11T04:02:36.980Z,988.21
2018-11-11T04:03:36.944Z,988.24
2018-11-11T04:04:36.931Z,988.20
2018-11-11T04:05:36.884Z,988.22
2018-11-11T04:06:36.965Z,988.19
2018-11-11T04:07:36.862Z,988.19
2018-11-11T04:08:36.832Z,988.20
2018-11-11T04:09:36.776Z,988.20
2018-11-11T04:10:36.834Z,988.19
2018-11-11T04:11:36.848Z,988.20
2018-11-11T04:12:36.706Z,988.17
2018-11-11T04:13:36.680Z,988.17
2018-11-11T04:14:36.639Z,988.16
2018-11-11T04:15:36.647Z,988.16
2018-11-11T04:16:36.712Z,988.20
2018-11-11T04:17:36.670Z,988.21
2018-11-11T04:18:36.558Z,988.23
2018-11-11T04:19:36.529Z,988.19
2018-11-11T04:20:36.646Z,988.23
2018-11-11T04:21:36.495Z,988.21
2018-11-11T04:22:36.563Z,988.21
2018-11-11T04:23:36.409Z,988.23
2018-11-11T04:24:36.373Z,988.23
2018-11-11T04:25:36.360Z,988.17
2018-11-11T04:26:36.439Z,988.14
2018-11-11T04:27:36.315Z,988.11
2018-11-11T04:28:36.371Z,988.11
2018-11-11T04:29:36.224Z,988.11
2018-11-11T04:30:36.241Z,988.10
2018-11-11T04:31:36.177Z,988.05
2018-11-11T04:32:36.161Z,988.08
2018-11-11T04:33:36.238Z,988.09
2018-11-11T04:34:36.138Z,988.09
2018-11-11T04:35:36.091Z,988.06
2018-11-11T04:36:36.075Z,988.07
2018-11-11T04:37:36.013Z,988.04
2018-11-11T04:38:36.093Z,988.05
2018-11-11T04:39:36.186Z,988.04
2018-11-11T04:40:35.938Z,988.01
2018-11-11T04:41:35.901Z,987.98
2018-11-11T04:42:35.873Z,987.96
2018-11-11T04:43:36.063Z,987.95
2018-11-11T04:44:35.865Z,987.87
2018-11-11T04:45:35.789Z,987.92
2018-11-11T04:46:35.850Z,987.93
2018-11-11T04:47:35.726Z,987.91
2018-11-11T04:48:35.841Z,987.92
2018-11-11T04:49:35.699Z,987.96
2018-11-11T04:50:35.649Z,987.91
2018-11-11T04:51:35.645Z,987.92
2018-11-11T04:52:35.597Z,987.88
2018-11-11T04:53:35.685Z,987.89
2018-11-11T04:54:35.540Z,987.86
2018-11-11T04:55:35.519Z,987.84
2018-11-11T04:56:35.504Z,987.88
2018-11-11T04:57:35.507Z,987.87
2018-11-11T04:58:35.470Z,987.86
2018-11-11T04:59:35.506Z,987.82
2018-11-11T05:00:35.378Z,987.79
2018-11-11T05:01:35.472Z,987.83
2018-11-11T05:02:35.329Z,987.85
2018-11-11T05:03:35.348Z,987.82
2018-11-11T05:04:35.301Z,987.77
2018-11-11T05:05:35.330Z,987.76
2018-11-11T05:06:35.260Z,987.75
2018-11-11T05:07:35.199Z,987.76
2018-11-11T05:08:35.150Z,987.76
2018-11-11T05:09:35.230Z,987.77
2018-11-11T05:10:35.191Z,987.77
2018-11-11T05:11:35.084Z,987.80
2018-11-11T05:12:35.044Z,987.79
2018-11-11T05:13:35.038Z,987.78
2018-11-11T05:14:35.027Z,987.80
2018-11-11T05:15:35.022Z,987.82
2018-11-11T05:16:34.999Z,987.81
2018-11-11T05:17:34.937Z,987.81
2018-11-11T05:18:34.887Z,987.82
2018-11-11T05:19:34.924Z,987.81
2018-11-11T05:20:34.975Z,987.81
2018-11-11T05:21:34.808Z,987.79
2018-11-11T05:22:34.795Z,987.77
2018-11-11T05:23:34.787Z,987.77
2018-11-11T05:24:34.725Z,987.78
2018-11-11T05:25:34.787Z,987.80
2018-11-11T05:26:34.668Z,987.77
2018-11-11T05:27:34.637Z,987.74
2018-11-11T05:28:34.654Z,987.71
2018-11-11T05:29:34.592Z,987.74
2018-11-11T05:30:34.617Z,987.71
2018-11-11T05:31:34.647Z,987.73
2018-11-11T05:32:34.575Z,987.72
2018-11-11T05:33:34.462Z,987.68
2018-11-11T05:34:34.548Z,987.67
2018-11-11T05:35:34.487Z,987.67
2018-11-11T05:36:34.406Z,987.61
2018-11-11T05:37:34.508Z,987.63
2018-11-11T05:38:34.424Z,987.60
2018-11-11T05:39:34.340Z,987.57
2018-11-11T05:40:34.295Z,987.57
2018-11-11T05:41:34.270Z,987.55
2018-11-11T05:42:34.273Z,987.55
2018-11-11T05:43:34.309Z,987.54
2018-11-11T05:44:34.160Z,987.55
2018-11-11T05:45:34.169Z,987.51
2018-11-11T05:46:34.189Z,987.51
2018-11-11T05:47:34.190Z,987.46
2018-11-11T05:48:34.112Z,987.46
2018-11-11T05:49:34.043Z,987.45
2018-11-11T05:50:34.088Z,987.42
2018-11-11T05:51:33.998Z,987.35
2018-11-11T05:52:33.961Z,987.36
2018-11-11T05:53:34.031Z,987.31
2018-11-11T05:54:33.905Z,987.27
2018-11-11T05:55:33.938Z,987.28
2018-11-11T05:56:33.853Z,987.24
2018-11-11T05:57:33.804Z,987.24
2018-11-11T05:58:33.900Z,987.21
2018-11-11T05:59:33.770Z,987.17
2018-11-11T06:00:33.707Z,987.16
2018-11-11T06:01:33.739Z,987.15
2018-11-11T06:02:33.699Z,987.14
2018-11-11T06:03:33.647Z,987.13
2018-11-11T06:04:33.728Z,987.14
2018-11-11T06:05:33.595Z,987.12
2018-11-11T06:06:33.575Z,987.14
2018-11-11T06:07:33.540Z,987.16
2018-11-11T06:08:33.583Z,987.13
2018-11-11T06:09:33.546Z,987.11
2018-11-11T06:10:33.588Z,987.09
2018-11-11T06:11:33.449Z,987.05
2018-11-11T06:12:33.410Z,987.03
2018-11-11T06:13:33.381Z,986.98
2018-11-11T06:14:33.466Z,986.95
2018-11-11T06:15:33.350Z,986.90
2018-11-11T06:16:33.395Z,986.90
2018-11-11T06:17:33.293Z,986.88
2018-11-11T06:18:33.245Z,986.87
2018-11-11T06:19:33.212Z,986.88
2018-11-11T06:20:33.179Z,986.94
2018-11-11T06:21:33.294Z,986.94
2018-11-11T06:22:33.139Z,986.97
2018-11-11T06:23:33.100Z,986.98
2018-11-11T06:24:33.093Z,986.93
2018-11-11T06:25:33.082Z,986.91
2018-11-11T06:26:33.130Z,986.92
2018-11-11T06:27:33.133Z,986.90
2018-11-11T06:28:32.990Z,986.84
2018-11-11T06:29:32.987Z,986.81
2018-11-11T06:30:32.942Z,986.76
2018-11-11T06:31:32.991Z,986.75
2018-11-11T06:32:32.866Z,986.72
2018-11-11T06:33:32.832Z,986.73
2018-11-11T06:34:32.821Z,986.73
2018-11-11T06:35:32.793Z,986.69
2018-11-11T06:36:32.854Z,986.68
2018-11-11T06:37:32.722Z,986.66
2018-11-11T06:38:32.686Z,986.66
2018-11-11T06:39:32.657Z,986.67
2018-11-11T06:40:32.644Z,986.64
2018-11-11T06:41:32.621Z,986.63
2018-11-11T06:42:32.677Z,986.59
2018-11-11T06:43:32.570Z,986.58
2018-11-11T06:44:32.534Z,986.52
2018-11-11T06:45:32.498Z,986.51
2018-11-11T06:46:32.476Z,986.50
2018-11-11T06:47:32.449Z,986.48
2018-11-11T06:48:32.532Z,986.51
2018-11-11T06:49:32.447Z,986.50
2018-11-11T06:50:32.382Z,986.52
2018-11-11T06:51:32.347Z,986.49
2018-11-11T06:52:32.324Z,986.51
2018-11-11T06:53:32.274Z,986.48
2018-11-11T06:54:32.361Z,986.46
2018-11-11T06:55:32.232Z,986.45
2018-11-11T06:56:32.211Z,986.42
2018-11-11T06:57:32.189Z,986.40
2018-11-11T06:58:32.149Z,986.38
2018-11-11T06:59:32.219Z,986.39
2018-11-11T07:00:32.092Z,986.42
2018-11-11T07:01:32.086Z,986.44
2018-11-11T07:02:32.033Z,986.46
2018-11-11T07:03:32.003Z,986.45
2018-11-11T07:04:32.119Z,986.46
2018-11-11T07:05:31.950Z,986.44
2018-11-11T07:06:31.924Z,986.45
2018-11-11T07:07:31.959Z,986.44
2018-11-11T07:08:31.877Z,986.42
2018-11-11T07:09:31.935Z,986.35
2018-11-11T07:10:31.812Z,986.35
2018-11-11T07:11:31.776Z,986.32
2018-11-11T07:12:31.838Z,986.34
2018-11-11T07:13:31.735Z,986.29
2018-11-11T07:14:31.815Z,986.31
2018-11-11T07:15:31.812Z,986.31
2018-11-11T07:16:31.656Z,986.31
2018-11-11T07:17:31.632Z,986.26
2018-11-11T07:18:31.604Z,986.24
2018-11-11T07:19:31.588Z,986.23
2018-11-11T07:20:31.625Z,986.22
2018-11-11T07:21:31.498Z,986.19
2018-11-11T07:22:31.488Z,986.19
2018-11-11T07:23:31.528Z,986.18
2018-11-11T07:24:31.419Z,986.19
2018-11-11T07:25:31.387Z,986.22
2018-11-11T07:26:31.476Z,986.17
2018-11-11T07:27:31.340Z,986.18
2018-11-11T07:28:31.346Z,986.17
2018-11-11T07:29:31.326Z,986.16
2018-11-11T07:30:31.257Z,986.17
2018-11-11T07:31:31.412Z,986.13
2018-11-11T07:32:31.301Z,986.14
2018-11-11T07:33:31.199Z,986.12
2018-11-11T07:34:31.194Z,986.12
2018-11-11T07:35:31.137Z,986.09
2018-11-11T07:36:31.098Z,986.10
2018-11-11T07:37:31.179Z,986.09
2018-11-11T07:38:31.048Z,986.07
2018-11-11T07:39:31.032Z,986.05
2018-11-11T07:40:30.983Z,986.10
2018-11-11T07:41:31.019Z,986.08
2018-11-11T07:42:31.130Z,986.08
2018-11-11T07:43:30.906Z,986.09
2018-11-11T07:44:30.895Z,986.08
2018-11-11T07:45:30.843Z,986.08
2018-11-11T07:46:30.834Z,986.08
2018-11-11T07:47:30.891Z,986.11
2018-11-11T07:48:30.865Z,986.12
2018-11-11T07:49:30.740Z,986.11
2018-11-11T07:50:30.713Z,986.14
2018-11-11T07:51:30.691Z,986.17
2018-11-11T07:52:30.673Z,986.19
2018-11-11T07:53:30.758Z,986.17
2018-11-11T07:54:30.598Z,986.19
2018-11-11T07:55:30.573Z,986.15
2018-11-11T07:56:30.559Z,986.17
2018-11-11T07:57:30.528Z,986.17
2018-11-11T07:58:30.688Z,986.19
2018-11-11T07:59:30.464Z,986.22
2018-11-11T08:00:30.440Z,986.24
2018-11-11T08:01:30.620Z,986.27
2018-11-11T08:02:30.368Z,986.27
2018-11-11T08:03:30.398Z,986.31
2018-11-11T08:04:30.435Z,986.32
2018-11-11T08:05:30.298Z,986.33
2018-11-11T08:06:30.385Z,986.37
2018-11-11T08:07:30.230Z,986.37
2018-11-11T08:08:30.232Z,986.34
2018-11-11T08:09:30.287Z,986.35
2018-11-11T08:10:30.158Z,986.36
2018-11-11T08:11:30.136Z,986.29
2018-11-11T08:12:30.107Z,986.31
2018-11-11T08:13:30.067Z,986.29
2018-11-11T08:14:30.147Z,986.26
2018-11-11T08:15:30.009Z,986.26
2018-11-11T08:16:30.041Z,986.25
2018-11-11T08:17:29.979Z,986.25
2018-11-11T08:18:29.941Z,986.26
2018-11-11T08:19:29.959Z,986.23
2018-11-11T08:20:30.029Z,986.22
2018-11-11T08:21:29.859Z,986.22
2018-11-11T08:22:29.813Z,986.18
2018-11-11T08:23:29.816Z,986.18
2018-11-11T08:24:29.761Z,986.18
2018-11-11T08:25:29.950Z,986.16
2018-11-11T08:26:29.722Z,986.13
2018-11-11T08:27:29.675Z,986.15
2018-11-11T08:28:29.662Z,986.13
2018-11-11T08:29:29.665Z,986.08
2018-11-11T08:30:29.718Z,986.08
2018-11-11T08:31:29.592Z,986.08
2018-11-11T08:32:29.632Z,986.13
2018-11-11T08:33:29.546Z,986.10
2018-11-11T08:34:29.483Z,986.09
2018-11-11T08:35:29.464Z,986.10
2018-11-11T08:36:29.544Z,986.08
2018-11-11T08:37:29.402Z,986.09
2018-11-11T08:38:29.400Z,986.10
2018-11-11T08:39:29.348Z,986.06
2018-11-11T08:40:29.416Z,986.05
2018-11-11T08:41:29.321Z,986.06
2018-11-11T08:42:29.355Z,986.10
2018-11-11T08:43:29.242Z,986.10
2018-11-11T08:44:29.214Z,986.10
2018-11-11T08:45:29.179Z,986.09
2018-11-11T08:46:29.153Z,986.08
2018-11-11T08:47:29.273Z,986.06
2018-11-11T08:48:29.106Z,986.08
2018-11-11T08:49:29.066Z,986.09
2018-11-11T08:50:29.049Z,986.11
2018-11-11T08:51:29.027Z,986.09
2018-11-11T08:52:29.030Z,986.10
2018-11-11T08:53:29.077Z,986.05
2018-11-11T08:54:28.937Z,986.05
2018-11-11T08:55:28.929Z,986.03
2018-11-11T08:56:28.886Z,985.99
2018-11-11T08:57:28.842Z,986.00
2018-11-11T08:58:28.944Z,986.03
2018-11-11T08:59:28.810Z,986.02
2018-11-11T09:00:28.786Z,986.05
2018-11-11T09:01:28.849Z,986.07
2018-11-11T09:02:28.725Z,986.06
2018-11-11T09:03:28.790Z,986.04
2018-11-11T09:04:28.697Z,986.02
2018-11-11T09:05:28.631Z,986.04
2018-11-11T09:06:28.609Z,986.05
2018-11-11T09:07:28.580Z,986.02
2018-11-11T09:08:28.651Z,986.04
2018-11-11T09:09:28.521Z,986.04
2018-11-11T09:10:28.527Z,986.04
2018-11-11T09:11:28.532Z,986.08
2018-11-11T09:12:28.452Z,986.06
2018-11-11T09:13:28.413Z,986.09
2018-11-11T09:14:28.482Z,986.04
2018-11-11T09:15:28.343Z,986.06
2018-11-11T09:16:28.330Z,986.06
2018-11-11T09:17:28.314Z,986.09
2018-11-11T09:18:28.276Z,986.09
2018-11-11T09:19:28.347Z,986.10
2018-11-11T09:20:28.223Z,986.09
2018-11-11T09:21:28.198Z,986.12
2018-11-11T09:22:28.174Z,986.09
2018-11-11T09:23:28.155Z,986.07
2018-11-11T09:24:28.106Z,986.07
2018-11-11T09:25:28.184Z,986.09
2018-11-11T09:26:28.071Z,986.09
2018-11-11T09:27:28.006Z,986.10
2018-11-11T09:28:27.978Z,986.13
2018-11-11T09:29:27.974Z,986.16
2018-11-11T09:30:28.167Z,986.14
2018-11-11T09:31:27.977Z,986.16
2018-11-11T09:32:27.903Z,986.20
2018-11-11T09:33:27.855Z,986.25
2018-11-11T09:34:27.917Z,986.27
2018-11-11T09:35:27.959Z,986.29
2018-11-11T09:36:27.761Z,986.30
2018-11-11T09:37:27.764Z,986.35
2018-11-11T09:38:27.718Z,986.36
2018-11-11T09:39:27.681Z,986.39
2018-11-11T09:40:27.759Z,986.40
2018-11-11T09:41:27.631Z,986.46
2018-11-11T09:42:27.662Z,986.49
2018-11-11T09:43:27.858Z,986.52
2018-11-11T09:44:27.566Z,986.54
2018-11-11T09:45:27.521Z,986.56
2018-11-11T09:46:27.583Z,986.59
2018-11-11T09:47:27.509Z,986.62
2018-11-11T09:48:27.460Z,986.62
2018-11-11T09:49:27.394Z,986.65
2018-11-11T09:50:27.381Z,986.66
2018-11-11T09:51:27.351Z,986.63
2018-11-11T09:52:27.433Z,986.64
2018-11-11T09:53:27.292Z,986.61
2018-11-11T09:54:27.261Z,986.63
2018-11-11T09:55:27.249Z,986.61
2018-11-11T09:56:27.201Z,986.58
2018-11-11T09:57:27.177Z,986.57
2018-11-11T09:58:27.276Z,986.58
2018-11-11T09:59:27.174Z,986.61
2018-11-11T10:00:27.121Z,986.57
2018-11-11T10:01:27.084Z,986.56
2018-11-11T10:02:27.045Z,986.57
2018-11-11T10:03:27.131Z,986.53
2018-11-11T10:04:26.997Z,986.54
2018-11-11T10:05:26.968Z,986.56
2018-11-11T10:06:26.960Z,986.51
2018-11-11T10:07:26.984Z,986.51
2018-11-11T10:08:26.986Z,986.55
2018-11-11T10:09:26.844Z,986.56
2018-11-11T10:10:26.834Z,986.58
2018-11-11T10:11:26.789Z,986.61
2018-11-11T10:12:26.846Z,986.63
2018-11-11T10:13:26.834Z,986.69
2018-11-11T10:14:26.746Z,986.72
2018-11-11T10:15:26.672Z,986.72
2018-11-11T10:16:26.644Z,986.74
2018-11-11T10:17:26.645Z,986.71
2018-11-11T10:18:26.698Z,986.75
2018-11-11T10:19:26.579Z,986.72
2018-11-11T10:20:26.755Z,986.77
2018-11-11T10:21:26.527Z,986.74
2018-11-11T10:22:26.497Z,986.72
2018-11-11T10:23:26.459Z,986.75
2018-11-11T10:24:26.550Z,986.77
2018-11-11T10:25:26.401Z,986.74
2018-11-11T10:26:26.364Z,986.76
2018-11-11T10:27:26.430Z,986.78
2018-11-11T10:28:26.322Z,986.76
2018-11-11T10:29:26.498Z,986.79
2018-11-11T10:30:26.355Z,986.81
2018-11-11T10:31:26.319Z,986.77
2018-11-11T10:32:26.197Z,986.80
2018-11-11T10:33:26.174Z,986.77
2018-11-11T10:34:26.163Z,986.81
2018-11-11T10:35:26.137Z,986.79
2018-11-11T10:36:26.189Z,986.80
2018-11-11T10:37:26.111Z,986.78
2018-11-11T10:38:26.051Z,986.79
2018-11-11T10:39:26.007Z,986.75
2018-11-11T10:40:25.991Z,986.80
2018-11-11T10:41:26.057Z,986.77
2018-11-11T10:42:25.934Z,986.78
2018-11-11T10:43:25.890Z,986.77
2018-11-11T10:44:25.960Z,986.80
2018-11-11T10:45:25.845Z,986.81
2018-11-11T10:46:25.931Z,986.80
2018-11-11T10:47:25.812Z,986.78
2018-11-11T10:48:25.782Z,986.75
2018-11-11T10:49:25.726Z,986.75
2018-11-11T10:50:25.764Z,986.78
2018-11-11T10:51:25.787Z,986.80
2018-11-11T10:52:25.647Z,986.82
2018-11-11T10:53:25.612Z,986.82
2018-11-11T10:54:25.632Z,986.84
2018-11-11T10:55:25.551Z,986.87
2018-11-11T10:56:25.638Z,986.88
2018-11-11T10:57:25.498Z,986.89
2018-11-11T10:58:25.488Z,986.85
2018-11-11T10:59:25.459Z,986.85
2018-11-11T11:00:25.455Z,986.84
2018-11-11T11:01:25.382Z,986.80
2018-11-11T11:02:25.470Z,986.83
2018-11-11T11:03:25.349Z,986.83
2018-11-11T11:04:25.303Z,986.85
2018-11-11T11:05:25.290Z,986.87
2018-11-11T11:06:25.245Z,986.85
2018-11-11T11:07:25.232Z,986.93
2018-11-11T11:08:25.304Z,986.88
2018-11-11T11:09:25.207Z,986.89
2018-11-11T11:10:25.158Z,986.92
2018-11-11T11:11:25.138Z,986.93
2018-11-11T11:12:25.078Z,986.94
2018-11-11T11:13:25.266Z,986.93
2018-11-11T11:14:25.028Z,986.98
2018-11-11T11:15:25.047Z,986.97
2018-11-11T11:16:25.063Z,986.96
2018-11-11T11:17:24.947Z,986.93
2018-11-11T11:18:25.040Z,986.93
2018-11-11T11:19:24.894Z,986.98
2018-11-11T11:20:24.874Z,986.97
2018-11-11T11:21:24.838Z,986.95
2018-11-11T11:22:24.798Z,986.94
2018-11-11T11:23:24.885Z,986.94
2018-11-11T11:24:24.740Z,986.92
2018-11-11T11:25:24.750Z,986.94
2018-11-11T11:26:24.702Z,986.96
2018-11-11T11:27:24.760Z,986.98
2018-11-11T11:28:24.733Z,986.99
2018-11-11T11:29:24.599Z,987.04
2018-11-11T11:30:24.577Z,987.06
2018-11-11T11:31:24.665Z,987.05
2018-11-11T11:32:24.526Z,987.08
2018-11-11T11:33:24.491Z,987.11
2018-11-11T11:34:24.627Z,987.15
2018-11-11T11:35:24.462Z,987.15
2018-11-11T11:36:24.419Z,987.12
2018-11-11T11:37:24.388Z,987.15
2018-11-11T11:38:24.572Z,987.11
2018-11-11T11:39:24.324Z,987.15
2018-11-11T11:40:24.417Z,987.11
2018-11-11T11:41:24.362Z,987.15
2018-11-11T11:42:24.242Z,987.17
2018-11-11T11:43:24.221Z,987.21
2018-11-11T11:44:24.206Z,987.23
2018-11-11T11:45:24.254Z,987.21
2018-11-11T11:46:24.130Z,987.20
2018-11-11T11:47:24.175Z,987.23
2018-11-11T11:48:24.064Z,987.30
2018-11-11T11:49:24.042Z,987.26
2018-11-11T11:50:24.161Z,987.26
2018-11-11T11:51:24.019Z,987.30
2018-11-11T11:52:24.078Z,987.35
2018-11-11T11:53:23.926Z,987.41
2018-11-11T11:54:23.907Z,987.43
2018-11-11T11:55:23.986Z,987.49
2018-11-11T11:56:23.855Z,987.47
2018-11-11T11:57:23.817Z,987.51
2018-11-11T11:58:23.826Z,987.49
2018-11-11T11:59:23.785Z,987.54
2018-11-11T12:00:23.828Z,987.56
2018-11-11T12:01:23.716Z,987.54
2018-11-11T12:02:23.734Z,987.58
2018-11-11T12:03:23.656Z,987.56
2018-11-11T12:04:23.646Z,987.61
2018-11-11T12:05:23.722Z,987.60
2018-11-11T12:06:23.578Z,987.58
2018-11-11T12:07:23.543Z,987.57
2018-11-11T12:08:23.553Z,987.59
2018-11-11T12:09:23.508Z,987.64
2018-11-11T12:10:23.460Z,987.68
2018-11-11T12:11:23.518Z,987.68
2018-11-11T12:12:23.401Z,987.68
2018-11-11T12:13:23.378Z,987.71
2018-11-11T12:14:23.364Z,987.72
2018-11-11T12:15:23.326Z,987.77
2018-11-11T12:16:23.339Z,987.77
2018-11-11T12:17:23.363Z,987.76
2018-11-11T12:18:23.255Z,987.75
2018-11-11T12:19:23.204Z,987.82
2018-11-11T12:20:23.182Z,987.82
2018-11-11T12:21:23.219Z,987.82
2018-11-11T12:22:23.231Z,987.77
2018-11-11T12:23:23.205Z,987.75
2018-11-11T12:24:23.081Z,987.75
2018-11-11T12:25:23.095Z,987.74
2018-11-11T12:26:23.007Z,987.74
2018-11-11T12:27:23.101Z,987.76
2018-11-11T12:28:23.001Z,987.73